createdAt,value
2018-09-10T00:02:27.144Z,54.5
2018-09-10T00:07:28.339Z,54.5
2018-09-10T00:12:28.081Z,54.5
2018-09-10T00:17:27.379Z,54.5
2018-09-10T00:22:27.990Z,54.3
2018-09-10T00:27:27.333Z,54.3
2018-09-10T00:32:27.751Z,54.3
2018-09-10T00:37:27.368Z,54.3
2018-09-10T00:42:27.660Z,54.3
2018-09-10T00:47:28.374Z,54.2
2018-09-10T00:52:28.776Z,54.3
2018-09-10T00:57:28.078Z,54.2
2018-09-10T01:02:28.061Z,54.2
2018-09-10T01:07:27.740Z,54.2
2018-09-10T01:12:28.580Z,54.1
2018-09-10T01:17:28.895Z,54.2
2018-09-10T01:22:28.718Z,54.1
2018-09-10T01:27:28.077Z,54.1
2018-09-10T01:32:27.747Z,54.1
2018-09-10T01:37:27.564Z,54.1
2018-09-10T01:42:28.440Z,54.1
2018-09-10T01:47:28.440Z,54.1
2018-09-10T01:52:27.339Z,54.2
2018-09-10T01:57:27.693Z,53.9
2018-09-10T02:02:27.827Z,54.0
2018-09-10T02:07:28.106Z,54.0
2018-09-10T02:12:27.997Z,53.9
2018-09-10T02:17:27.856Z,53.9
2018-09-10T02:22:27.741Z,53.8
2018-09-10T02:27:28.525Z,53.9
2018-09-10T02:32:28.318Z,53.9
2018-09-10T02:37:27.793Z,53.8
2018-09-10T02:42:27.806Z,53.8
2018-09-10T02:47:27.527Z,53.8
2018-09-10T02:52:27.385Z,53.7
2018-09-10T02:57:27.629Z,53.8
2018-09-10T03:02:28.292Z,53.7
2018-09-10T03:07:27.770Z,53.8
2018-09-10T03:12:28.296Z,53.8
2018-09-10T03:17:28.647Z,53.8
2018-09-10T03:22:27.543Z,53.7
2018-09-10T03:27:27.510Z,53.7
2018-09-10T03:32:28.910Z,53.7
2018-09-10T03:37:27.699Z,53.7
2018-09-10T03:42:27.697Z,53.6
2018-09-10T03:47:28.705Z,53.6
2018-09-10T03:52:28.342Z,53.5
2018-09-10T03:57:27.354Z,53.4
2018-09-10T04:02:27.452Z,53.4
2018-09-10T04:07:28.275Z,53.5
2018-09-10T04:12:27.232Z,53.6
2018-09-10T04:17:28.332Z,53.4
2018-09-10T04:22:28.134Z,53.2
2018-09-10T04:27:28.898Z,53.2
2018-09-10T04:32:27.875Z,53.2
2018-09-10T04:37:28.632Z,53.4
2018-09-10T04:42:27.901Z,53.4
2018-09-10T04:47:28.883Z,53.3
2018-09-10T04:52:28.017Z,53.3
2018-09-10T04:57:28.245Z,53.2
2018-09-10T05:02:28.060Z,53.2
2018-09-10T05:07:29.081Z,53.3
2018-09-10T05:12:27.761Z,53.2
2018-09-10T05:17:28.369Z,53.1
2018-09-10T05:22:28.508Z,53.1
2018-09-10T05:27:28.129Z,52.9
2018-09-10T05:32:27.696Z,52.9
2018-09-10T05:37:28.224Z,53.1
2018-09-10T05:42:28.715Z,53.0
2018-09-10T05:47:28.999Z,52.9
2018-09-10T05:52:28.241Z,53.0
2018-09-10T05:57:28.507Z,52.5
2018-09-10T06:02:28.263Z,52.5
2018-09-10T06:07:29.146Z,52.4
2018-09-10T06:12:28.355Z,52.5
2018-09-10T06:17:28.484Z,52.3
2018-09-10T06:22:28.765Z,52.3
2018-09-10T06:27:27.916Z,52.4
2018-09-10T06:32:28.709Z,52.4
2018-09-10T06:37:29.172Z,52.4
2018-09-10T06:42:28.819Z,52.4
2018-09-10T06:47:28.698Z,52.5
2018-09-10T06:52:29.069Z,52.5
2018-09-10T06:57:28.097Z,52.5
2018-09-10T07:02:28.323Z,52.7
2018-09-10T07:07:28.332Z,52.8
2018-09-10T07:12:27.817Z,52.8
2018-09-10T07:17:28.798Z,52.9
2018-09-10T07:22:28.237Z,53.0
2018-09-10T07:27:28.430Z,53.0
2018-09-10T07:32:28.788Z,53.0
2018-09-10T07:37:28.042Z,53.2
2018-09-10T07:42:28.253Z,53.2
2018-09-10T07:47:28.665Z,53.5
2018-09-10T07:52:28.219Z,53.6
2018-09-10T07:57:27.835Z,53.7
2018-09-10T08:02:29.118Z,53.6
2018-09-10T08:07:29.588Z,53.7
2018-09-10T08:12:28.899Z,53.7
2018-09-10T08:17:28.384Z,53.8
2018-09-10T08:22:28.451Z,53.8
2018-09-10T08:27:28.853Z,53.9
2018-09-10T08:32:28.226Z,54.0
2018-09-10T08:37:28.525Z,54.1
2018-09-10T08:42:28.055Z,54.6
2018-09-10T08:47:28.727Z,55.0
2018-09-10T08:52:27.567Z,55.9
2018-09-10T08:57:28.499Z,55.8
2018-09-10T09:02:28.300Z,55.9
2018-09-10T09:07:28.777Z,55.7
2018-09-10T09:12:28.323Z,56.0
2018-09-10T09:17:29.010Z,55.8
2018-09-10T09:22:28.169Z,56.2
2018-09-10T09:27:28.433Z,56.2
2018-09-10T09:32:28.131Z,56.2
2018-09-10T09:37:29.141Z,56.7
2018-09-10T09:42:28.627Z,56.7
2018-09-10T09:47:28.031Z,56.9
2018-09-10T09:52:28.187Z,56.7
2018-09-10T09:57:28.183Z,56.8
2018-09-10T10:02:29.963Z,56.7
2018-09-10T10:07:27.674Z,56.8
2018-09-10T10:12:29.789Z,56.8
2018-09-10T10:17:28.958Z,56.8
2018-09-10T10:22:28.470Z,57.0
2018-09-10T10:27:28.166Z,57.4
2018-09-10T10:32:28.225Z,57.6
2018-09-10T10:37:28.846Z,57.9
2018-09-10T10:42:28.196Z,57.9
2018-09-10T10:47:28.666Z,58.2
2018-09-10T10:52:27.944Z,58.0
2018-09-10T10:57:28.279Z,58.3
2018-09-10T11:02:28.665Z,58.3
2018-09-10T11:07:28.893Z,58.3
2018-09-10T11:12:28.531Z,58.6
2018-09-10T11:17:29.142Z,58.7
2018-09-10T11:22:28.576Z,58.4
2018-09-10T11:27:28.651Z,58.4
2018-09-10T11:32:28.481Z,58.2
2018-09-10T11:37:28.870Z,57.9
2018-09-10T11:42:28.869Z,57.6
2018-09-10T11:47:28.143Z,57.6
2018-09-10T11:52:58.049Z,57.7
2018-09-10T11:57:28.532Z,57.8
2018-09-10T12:02:29.308Z,57.9
2018-09-10T12:07:28.905Z,58.1
2018-09-10T12:12:28.144Z,58.1
2018-09-10T12:17:30.479Z,57.9
2018-09-10T12:22:27.977Z,57.3
2018-09-10T12:27:28.669Z,57.3
2018-09-10T12:32:29.224Z,57.7
2018-09-10T12:37:27.752Z,57.7
2018-09-10T12:42:28.494Z,57.4
2018-09-10T12:47:28.657Z,57.4
2018-09-10T12:52:29.047Z,57.1
2018-09-10T12:57:27.657Z,57.2
2018-09-10T13:02:28.408Z,56.8
2018-09-10T13:07:28.546Z,56.8
2018-09-10T13:12:28.270Z,56.5
2018-09-10T13:17:29.054Z,56.2
2018-09-10T13:22:27.668Z,54.3
2018-09-10T13:27:28.255Z,56.5
2018-09-10T13:32:29.271Z,55.6
2018-09-10T13:37:28.260Z,55.1
2018-09-10T13:42:28.760Z,56.3
2018-09-10T13:47:28.886Z,55.8
2018-09-10T13:52:27.321Z,53.8
2018-09-10T13:57:29.311Z,54.2
2018-09-10T14:02:29.012Z,54.4
2018-09-10T14:07:28.708Z,54.4
2018-09-10T14:12:28.159Z,55.0
2018-09-10T14:17:28.890Z,53.9
2018-09-10T14:22:28.262Z,53.9
2018-09-10T14:27:28.135Z,51.7
2018-09-10T14:32:28.237Z,51.1
2018-09-10T14:37:28.560Z,51.6
2018-09-10T14:42:29.727Z,51.1
2018-09-10T14:47:28.588Z,49.5
2018-09-10T14:52:30.100Z,48.9
2018-09-10T14:57:28.381Z,48.9
2018-09-10T15:02:28.664Z,48.0
2018-09-10T15:07:27.841Z,47.5
2018-09-10T15:12:28.848Z,45.4
2018-09-10T15:17:27.938Z,45.0
2018-09-10T15:22:28.175Z,44.5
2018-09-10T15:27:28.288Z,44.8
2018-09-10T15:32:29.134Z,44.2
2018-09-10T15:37:28.613Z,44.1
2018-09-10T15:42:28.417Z,43.1
2018-09-10T15:47:28.139Z,44.2
2018-09-10T15:52:28.216Z,44.2
2018-09-10T15:57:28.173Z,44.8
2018-09-10T16:02:27.983Z,44.7
2018-09-10T16:07:28.930Z,44.0
2018-09-10T16:12:28.477Z,46.0
2018-09-10T16:17:28.769Z,46.1
2018-09-10T16:22:28.377Z,46.7
2018-09-10T16:27:28.813Z,47.8
2018-09-10T16:32:28.195Z,48.7
2018-09-10T16:37:27.787Z,49.0
2018-09-10T16:42:28.947Z,48.9
2018-09-10T16:47:28.893Z,48.7
2018-09-10T16:52:28.307Z,48.8
2018-09-10T16:57:28.000Z,48.2
2018-09-10T17:02:28.095Z,49.2
2018-09-10T17:07:28.750Z,51.3
2018-09-10T17:12:27.412Z,52.9
2018-09-10T17:17:28.564Z,51.4
2018-09-10T17:22:28.685Z,50.6
2018-09-10T17:27:28.267Z,50.6
2018-09-10T17:32:28.394Z,51.9
2018-09-10T17:37:28.287Z,52.8
2018-09-10T17:42:28.204Z,54.4
2018-09-10T17:47:27.857Z,54.4
2018-09-10T17:52:27.963Z,55.5
2018-09-10T17:57:28.498Z,55.8
2018-09-10T18:02:28.720Z,55.9
2018-09-10T18:07:28.385Z,56.2
2018-09-10T18:12:27.867Z,55.8
2018-09-10T18:17:29.255Z,56.0
2018-09-10T18:22:28.141Z,56.1
2018-09-10T18:27:27.815Z,55.7
2018-09-10T18:32:27.652Z,55.8
2018-09-10T18:37:27.426Z,55.7
2018-09-10T18:42:28.115Z,55.7
2018-09-10T18:47:29.024Z,55.7
2018-09-10T18:52:27.659Z,55.6
2018-09-10T18:57:27.673Z,55.6
2018-09-10T19:02:27.764Z,55.5
2018-09-10T19:07:28.079Z,55.5
2018-09-10T19:12:27.390Z,55.3
2018-09-10T19:17:28.143Z,55.2
2018-09-10T19:22:27.518Z,55.2
2018-09-10T19:27:28.667Z,55.2
2018-09-10T19:32:29.625Z,55.1
2018-09-10T19:37:28.076Z,55.0
2018-09-10T19:42:27.767Z,54.9
2018-09-10T19:47:28.154Z,54.7
2018-09-10T19:52:27.955Z,54.7
2018-09-10T19:57:27.570Z,54.7
2018-09-10T20:02:27.428Z,54.7
2018-09-10T20:07:28.116Z,54.6
2018-09-10T20:12:28.505Z,54.5
2018-09-10T20:17:28.909Z,54.4
2018-09-10T20:22:28.469Z,54.3
2018-09-10T20:27:27.821Z,54.2
2018-09-10T20:32:28.427Z,54.1
2018-09-10T20:37:27.837Z,54.2
2018-09-10T20:42:27.808Z,54.1
2018-09-10T20:47:28.257Z,54.3
2018-09-10T20:52:27.492Z,54.3
2018-09-10T20:57:28.221Z,54.2
2018-09-10T21:02:28.954Z,54.3
2018-09-10T21:07:28.079Z,54.1
2018-09-10T21:12:28.083Z,54.2
2018-09-10T21:17:28.217Z,54.1
2018-09-10T21:22:28.663Z,54.1
2018-09-10T21:27:28.441Z,54.1
2018-09-10T21:32:27.565Z,54.1
2018-09-10T21:37:28.131Z,54.1
2018-09-10T21:42:28.198Z,54.1
2018-09-10T21:47:27.881Z,54.1
2018-09-10T21:52:27.683Z,54.1
2018-09-10T21:57:27.593Z,54.1
2018-09-10T22:02:27.922Z,54.2
2018-09-10T22:07:28.339Z,54.1
2018-09-10T22:12:27.435Z,54.0
2018-09-10T22:22:44.978Z,53.6
2018-09-10T22:27:42.666Z,54.1
2018-09-10T22:32:43.805Z,53.9
2018-09-10T22:37:42.656Z,53.9
2018-09-10T22:42:44.411Z,53.9
2018-09-10T22:47:42.785Z,53.9
2018-09-10T22:52:44.188Z,53.8
2018-09-10T22:57:43.829Z,53.7
2018-09-10T23:02:43.532Z,53.6
2018-09-10T23:07:44.729Z,53.8
2018-09-10T23:12:27.807Z,53.8
2018-09-10T23:17:27.481Z,53.7
2018-09-10T23:22:27.528Z,53.8
2018-09-10T23:27:27.857Z,53.6
2018-09-10T23:32:28.110Z,53.6
2018-09-10T23:37:27.395Z,53.6
2018-09-10T23:42:27.757Z,53.4
2018-09-10T23:47:28.005Z,53.2
2018-09-10T23:52:28.270Z,53.5
2018-09-10T23:57:28.036Z,53.4
